createdAt,value
2023-03-15T00:01:29.780Z,65.09
2023-03-15T00:03:32.654Z,65.37
2023-03-15T00:05:34.286Z,65.27
2023-03-15T00:07:35.796Z,65.00
2023-03-15T00:09:37.598Z,65.56
2023-03-15T00:11:39.210Z,65.08
2023-03-15T00:13:41.705Z,65.18
2023-03-15T00:15:48.583Z,64.92
2023-03-15T00:17:50.179Z,65.57
2023-03-15T00:19:53.686Z,66.06
2023-03-15T00:21:55.536Z,65.83
2023-03-15T00:23:57.143Z,65.98
2023-03-15T00:25:58.938Z,65.88
2023-03-15T00:28:00.747Z,66.23
2023-03-15T00:30:02.604Z,65.73
2023-03-15T00:32:05.014Z,66.05
2023-03-15T00:34:06.972Z,66.45
2023-03-15T00:36:11.592Z,66.45
2023-03-15T00:38:14.237Z,66.00
2023-03-15T00:40:16.551Z,65.89
2023-03-15T00:42:18.569Z,66.65
2023-03-15T00:44:20.723Z,66.69
2023-03-15T00:46:23.343Z,66.10
2023-03-15T00:48:25.146Z,66.66
2023-03-15T00:50:27.495Z,66.15
2023-03-15T00:52:36.008Z,66.33
2023-03-15T00:54:37.637Z,66.52
2023-03-15T00:56:40.066Z,66.10
2023-03-15T00:58:42.609Z,66.24
2023-03-15T01:00:46.362Z,65.81
2023-03-15T01:02:48.245Z,66.37
2023-03-15T01:04:50.564Z,65.83
2023-03-15T01:06:53.094Z,65.91
2023-03-15T01:08:57.513Z,66.52
2023-03-15T01:11:02.678Z,66.87
2023-03-15T01:13:04.542Z,66.80
2023-03-15T01:15:09.098Z,66.40
2023-03-15T01:17:11.186Z,66.79
2023-03-15T01:19:14.878Z,66.58
2023-03-15T01:21:16.723Z,66.95
2023-03-15T01:23:18.773Z,66.38
2023-03-15T01:25:21.947Z,66.71
2023-03-15T01:27:23.975Z,67.21
2023-03-15T01:29:25.892Z,66.79
2023-03-15T01:31:29.617Z,66.71
2023-03-15T01:33:31.721Z,67.17
2023-03-15T01:35:33.427Z,66.60
2023-03-15T01:37:35.376Z,66.51
2023-03-15T01:39:37.134Z,66.61
2023-03-15T01:41:40.042Z,67.40
2023-03-15T01:43:42.537Z,66.80
2023-03-15T01:46:00.164Z,66.92
2023-03-15T01:48:03.487Z,67.17
2023-03-15T01:50:12.897Z,67.33
2023-03-15T01:52:19.375Z,66.77
2023-03-15T01:54:27.464Z,67.60
2023-03-15T01:56:31.766Z,67.57
2023-03-15T01:58:37.009Z,67.59
2023-03-15T02:00:40.893Z,67.17
2023-03-15T02:02:50.743Z,67.39
2023-03-15T02:04:57.369Z,67.06
2023-03-15T02:07:02.262Z,67.41
2023-03-15T02:09:08.815Z,66.90
2023-03-15T02:11:11.997Z,67.51
2023-03-15T02:13:17.256Z,67.09
2023-03-15T02:15:20.542Z,66.78
2023-03-15T02:17:29.899Z,67.61
2023-03-15T02:19:41.873Z,66.69
2023-03-15T02:21:52.518Z,67.42
2023-03-15T02:24:03.700Z,67.55
2023-03-15T02:26:18.099Z,67.66
2023-03-15T02:28:21.643Z,66.92
2023-03-15T02:30:23.722Z,67.63
2023-03-15T02:32:26.242Z,67.12
2023-03-15T02:34:28.596Z,66.92
2023-03-15T02:36:31.001Z,67.73
2023-03-15T02:38:32.906Z,67.74
2023-03-15T02:40:35.429Z,67.73
2023-03-15T02:42:37.047Z,67.27
2023-03-15T02:44:43.629Z,67.78
2023-03-15T02:46:48.211Z,67.61
2023-03-15T02:48:51.154Z,67.42
2023-03-15T02:50:52.905Z,67.85
2023-03-15T02:52:55.231Z,67.85
2023-03-15T02:54:57.576Z,67.84
2023-03-15T02:56:59.357Z,67.48
2023-03-15T02:59:01.403Z,68.29
2023-03-15T03:01:05.243Z,68.20
2023-03-15T03:03:07.018Z,68.21
2023-03-15T03:05:09.423Z,68.23
2023-03-15T03:07:11.244Z,68.31
2023-03-15T03:09:13.232Z,68.00
2023-03-15T03:11:16.037Z,67.76
2023-03-15T03:13:17.809Z,68.59
2023-03-15T03:15:20.218Z,68.69
2023-03-15T03:17:23.748Z,68.72
2023-03-15T03:19:26.624Z,68.25
2023-03-15T03:21:28.131Z,68.57
2023-03-15T03:23:31.056Z,67.99
2023-03-15T03:25:33.565Z,68.17
2023-03-15T03:27:36.665Z,68.13
2023-03-15T03:29:39.690Z,69.13
2023-03-15T03:31:41.256Z,69.03
2023-03-15T03:33:45.101Z,68.59
2023-03-15T03:35:48.237Z,69.28
2023-03-15T03:37:49.867Z,69.43
2023-03-15T03:39:51.934Z,69.19
2023-03-15T03:41:54.243Z,68.67
2023-03-15T03:43:56.145Z,68.84
2023-03-15T03:45:57.856Z,68.92
2023-03-15T03:47:59.512Z,69.43
2023-03-15T03:50:02.657Z,70.00
2023-03-15T03:52:04.782Z,69.39
2023-03-15T03:54:06.658Z,69.83
2023-03-15T03:56:09.434Z,69.85
2023-03-15T03:58:11.296Z,70.16
2023-03-15T04:00:15.337Z,70.53
2023-03-15T04:02:17.810Z,69.92
2023-03-15T04:04:19.676Z,70.52
2023-03-15T04:06:23.282Z,69.58
2023-03-15T04:08:26.484Z,70.26
2023-03-15T04:10:29.942Z,70.00
2023-03-15T04:12:32.178Z,69.54
2023-03-15T04:14:34.043Z,69.81
2023-03-15T04:16:35.905Z,69.95
2023-03-15T04:18:38.271Z,70.29
2023-03-15T04:20:40.788Z,69.67
2023-03-15T04:22:44.426Z,69.90
2023-03-15T04:24:46.080Z,70.23
2023-03-15T04:26:47.669Z,70.56
2023-03-15T04:28:49.848Z,70.42
2023-03-15T04:30:51.631Z,69.88
2023-03-15T04:32:54.424Z,70.52
2023-03-15T04:34:56.066Z,70.19
2023-03-15T04:36:58.144Z,70.75
2023-03-15T04:39:01.274Z,70.50
2023-03-15T04:41:02.844Z,70.37
2023-03-15T04:43:05.560Z,70.32
2023-03-15T04:45:08.093Z,70.57
2023-03-15T04:47:10.714Z,70.48
2023-03-15T04:49:12.785Z,70.33
2023-03-15T04:51:14.394Z,70.90
2023-03-15T04:53:16.216Z,70.95
2023-03-15T04:55:19.438Z,71.42
2023-03-15T04:57:21.056Z,71.50
2023-03-15T04:59:22.707Z,71.48
2023-03-15T05:01:28.501Z,71.67
2023-03-15T05:03:30.310Z,71.91
2023-03-15T05:05:33.608Z,71.92
2023-03-15T05:07:36.707Z,72.33
2023-03-15T05:09:40.586Z,71.88
2023-03-15T05:11:43.793Z,72.16
2023-03-15T05:13:45.427Z,72.42
2023-03-15T05:15:47.313Z,71.56
2023-03-15T05:17:49.153Z,72.18
2023-03-15T05:19:51.158Z,71.66
2023-03-15T05:21:52.726Z,72.53
2023-03-15T05:23:56.627Z,71.68
2023-03-15T05:25:58.486Z,72.12
2023-03-15T05:28:03.066Z,71.21
2023-03-15T05:30:06.833Z,71.59
2023-03-15T05:32:08.846Z,71.60
2023-03-15T05:34:10.556Z,71.13
2023-03-15T05:36:12.171Z,71.33
2023-03-15T05:38:14.557Z,71.89
2023-03-15T05:40:16.427Z,71.68
2023-03-15T05:42:19.099Z,70.85
2023-03-15T05:44:24.791Z,70.98
2023-03-15T05:46:26.446Z,71.84
2023-03-15T05:48:28.064Z,71.21
2023-03-15T05:50:29.917Z,71.08
2023-03-15T05:52:31.645Z,72.13
2023-03-15T05:54:33.559Z,71.70
2023-03-15T05:56:35.461Z,71.09
2023-03-15T05:58:37.315Z,71.74
2023-03-15T06:00:40.498Z,72.14
2023-03-15T06:02:42.659Z,71.35
2023-03-15T06:04:44.640Z,71.98
2023-03-15T06:06:46.279Z,71.42
2023-03-15T06:08:47.863Z,71.81
2023-03-15T06:10:50.223Z,71.48
2023-03-15T06:12:51.945Z,71.67
2023-03-15T06:14:53.506Z,71.86
2023-03-15T06:16:56.745Z,71.76
2023-03-15T06:18:58.431Z,71.56
2023-03-15T06:21:00.004Z,71.94
2023-03-15T06:23:01.681Z,71.87
2023-03-15T06:25:03.279Z,71.32
2023-03-15T06:27:05.094Z,71.01
2023-03-15T06:29:07.004Z,71.11
2023-03-15T06:31:09.758Z,71.24
2023-03-15T06:33:13.621Z,71.24
2023-03-15T06:35:15.613Z,70.87
2023-03-15T06:37:28.893Z,70.45
2023-03-15T06:39:35.180Z,71.13
2023-03-15T06:41:37.178Z,70.98
2023-03-15T06:43:38.793Z,70.77
2023-03-15T06:45:40.692Z,69.97
2023-03-15T06:47:42.344Z,70.43
2023-03-15T06:49:45.299Z,70.24
2023-03-15T06:51:47.178Z,69.73
2023-03-15T06:53:48.934Z,69.76
2023-03-15T06:55:50.955Z,69.70
2023-03-15T06:57:52.847Z,69.75
2023-03-15T06:59:56.050Z,69.12
2023-03-15T07:01:57.688Z,69.09
2023-03-15T07:04:00.261Z,68.54
2023-03-15T07:06:03.988Z,69.28
2023-03-15T07:08:06.026Z,69.37
2023-03-15T07:10:08.417Z,68.90
2023-03-15T07:12:11.276Z,68.78
2023-03-15T07:14:13.066Z,68.64
2023-03-15T07:16:14.866Z,68.90
2023-03-15T07:18:17.242Z,68.93
2023-03-15T07:20:19.018Z,68.86
2023-03-15T07:22:23.066Z,68.32
2023-03-15T07:24:24.799Z,68.17
2023-03-15T07:26:26.725Z,68.23
2023-03-15T07:28:29.013Z,68.51
2023-03-15T07:30:30.595Z,67.39
2023-03-15T07:32:32.241Z,68.29
2023-03-15T07:34:33.980Z,67.50
2023-03-15T07:36:35.721Z,68.08
2023-03-15T07:38:39.920Z,67.82
2023-03-15T07:40:42.588Z,67.89
2023-03-15T07:42:44.446Z,67.10
2023-03-15T07:44:46.221Z,66.85
2023-03-15T07:46:47.911Z,67.44
2023-03-15T07:48:49.957Z,67.50
2023-03-15T07:50:52.084Z,67.25
2023-03-15T07:52:54.020Z,67.41
2023-03-15T07:54:57.474Z,67.01
2023-03-15T07:56:59.097Z,66.87
2023-03-15T07:59:03.903Z,65.59
2023-03-15T08:01:05.673Z,64.54
2023-03-15T08:03:07.520Z,64.67
2023-03-15T08:05:09.760Z,64.68
2023-03-15T08:07:11.621Z,64.68
2023-03-15T08:09:13.479Z,64.14
2023-03-15T08:11:16.412Z,63.62
2023-03-15T08:13:18.224Z,63.69
2023-03-15T08:15:20.509Z,62.65
2023-03-15T08:17:22.051Z,62.68
2023-03-15T08:19:23.943Z,62.05
2023-03-15T08:21:27.268Z,61.99
2023-03-15T08:23:31.474Z,61.25
2023-03-15T08:25:33.689Z,61.46
2023-03-15T08:27:40.249Z,60.26
2023-03-15T08:29:42.048Z,60.74
2023-03-15T08:31:46.560Z,59.99
2023-03-15T08:33:48.876Z,59.25
2023-03-15T08:35:54.858Z,59.48
2023-03-15T08:37:56.376Z,59.06
2023-03-15T08:39:58.384Z,58.76
2023-03-15T08:42:00.033Z,58.46
2023-03-15T08:44:03.230Z,57.86
2023-03-15T08:46:05.282Z,56.90
2023-03-15T08:48:06.883Z,57.77
2023-03-15T08:50:11.506Z,56.47
2023-03-15T08:52:13.338Z,56.98
2023-03-15T08:54:15.090Z,57.08
2023-03-15T08:56:17.151Z,56.43
2023-03-15T08:58:19.315Z,55.99
2023-03-15T09:00:23.214Z,55.10
2023-03-15T09:02:25.013Z,54.98
2023-03-15T09:04:26.714Z,55.33
2023-03-15T09:06:28.846Z,55.39
2023-03-15T09:08:30.600Z,54.34
2023-03-15T09:10:32.235Z,53.78
2023-03-15T09:12:33.945Z,53.86
2023-03-15T09:14:35.775Z,53.78
2023-03-15T09:16:38.796Z,52.67
2023-03-15T09:18:40.612Z,52.71
2023-03-15T09:20:42.260Z,52.70
2023-03-15T09:22:51.289Z,52.68
2023-03-15T09:24:52.907Z,53.04
2023-03-15T09:26:54.432Z,51.89
2023-03-15T09:28:56.384Z,51.22
2023-03-15T09:30:59.970Z,51.93
2023-03-15T09:33:04.373Z,52.43
2023-03-15T09:35:09.120Z,51.12
2023-03-15T09:37:10.624Z,50.97
2023-03-15T09:39:12.581Z,49.06
2023-03-15T09:41:20.431Z,49.80
2023-03-15T09:43:40.014Z,48.70
2023-03-15T09:45:55.682Z,48.13
2023-03-15T09:48:08.595Z,47.83
2023-03-15T09:50:19.775Z,47.12
2023-03-15T09:52:33.291Z,47.53
2023-03-15T09:54:41.898Z,47.20
2023-03-15T09:56:52.168Z,47.43
2023-03-15T09:58:58.636Z,46.49
2023-03-15T10:01:05.536Z,45.79
2023-03-15T10:03:16.512Z,47.47
2023-03-15T10:05:23.043Z,45.46
2023-03-15T10:07:24.854Z,46.52
2023-03-15T10:09:32.101Z,43.93
2023-03-15T10:11:43.704Z,44.56
2023-03-15T10:14:00.589Z,46.72
2023-03-15T10:16:16.279Z,44.55
2023-03-15T10:18:34.654Z,46.30
2023-03-15T10:20:41.333Z,44.89
2023-03-15T10:22:51.201Z,46.00
2023-03-15T10:24:57.393Z,46.89
2023-03-15T10:27:04.675Z,44.23
2023-03-15T10:29:14.442Z,46.82
2023-03-15T10:31:25.649Z,45.83
2023-03-15T10:33:38.119Z,43.91
2023-03-15T10:35:39.984Z,43.64
2023-03-15T10:37:42.099Z,43.52
2023-03-15T10:39:46.659Z,44.33
2023-03-15T10:41:50.242Z,44.24
2023-03-15T10:43:58.812Z,44.57
2023-03-15T10:46:02.424Z,44.34
2023-03-15T10:48:04.044Z,43.27
2023-03-15T10:50:11.148Z,44.51
2023-03-15T10:52:31.512Z,46.17
2023-03-15T10:54:34.934Z,44.64
2023-03-15T10:56:44.612Z,45.34
2023-03-15T10:58:55.138Z,45.34
2023-03-15T11:01:13.393Z,45.02
2023-03-15T11:03:18.006Z,44.93
2023-03-15T11:05:21.557Z,42.87
2023-03-15T11:07:23.216Z,42.36
2023-03-15T11:09:29.700Z,42.42
2023-03-15T11:11:49.612Z,44.59
2023-03-15T11:14:04.777Z,43.51
2023-03-15T11:16:14.729Z,43.39
2023-03-15T11:18:24.896Z,43.77
2023-03-15T11:20:30.667Z,43.93
2023-03-15T11:22:32.627Z,42.35
2023-03-15T11:24:34.312Z,42.46
2023-03-15T11:26:39.568Z,43.61
2023-03-15T11:28:48.443Z,43.87
2023-03-15T11:30:50.048Z,43.83
2023-03-15T11:32:53.631Z,42.61
2023-03-15T11:35:01.084Z,43.19
2023-03-15T11:37:13.238Z,43.83
2023-03-15T11:39:24.463Z,44.37
2023-03-15T11:41:33.005Z,43.26
2023-03-15T11:43:45.815Z,43.73
2023-03-15T11:45:54.218Z,43.78
2023-03-15T11:48:00.029Z,43.40
2023-03-15T11:50:02.222Z,42.16
2023-03-15T11:52:06.162Z,42.65
2023-03-15T11:54:14.230Z,41.55
2023-03-15T11:56:25.059Z,41.37
2023-03-15T11:58:29.323Z,40.03
2023-03-15T12:00:49.771Z,42.19
2023-03-15T12:02:54.383Z,40.75
2023-03-15T12:04:57.207Z,40.49
2023-03-15T12:07:03.052Z,40.03
2023-03-15T12:09:38.026Z,43.50
2023-03-15T12:11:42.562Z,41.19
2023-03-15T12:13:53.244Z,40.93
2023-03-15T12:15:55.811Z,39.60
2023-03-15T12:17:58.984Z,39.96
2023-03-15T12:20:06.887Z,40.17
2023-03-15T12:22:15.604Z,40.02
2023-03-15T12:24:23.572Z,40.02
2023-03-15T12:26:38.175Z,39.83
2023-03-15T12:28:44.064Z,39.92
2023-03-15T12:30:45.909Z,38.61
2023-03-15T12:32:51.874Z,39.09
2023-03-15T12:34:56.338Z,38.72
2023-03-15T12:37:04.940Z,39.27
2023-03-15T12:39:22.182Z,38.41
2023-03-15T12:41:37.222Z,40.14
2023-03-15T12:43:42.221Z,38.93
2023-03-15T12:45:45.460Z,39.44
2023-03-15T12:48:07.777Z,40.63
2023-03-15T12:50:38.921Z,43.02
2023-03-15T12:52:42.776Z,41.74
2023-03-15T12:54:49.696Z,41.28
2023-03-15T12:56:57.449Z,40.50
2023-03-15T12:59:04.573Z,40.67
2023-03-15T13:01:08.460Z,40.11
2023-03-15T13:03:16.561Z,40.15
2023-03-15T13:05:25.904Z,40.26
2023-03-15T13:07:51.069Z,39.76
2023-03-15T13:10:13.209Z,40.61
2023-03-15T13:12:24.697Z,41.24
2023-03-15T13:14:38.269Z,40.11
2023-03-15T13:16:44.089Z,40.26
2023-03-15T13:18:56.956Z,41.01
2023-03-15T13:21:11.916Z,41.44
2023-03-15T13:23:18.628Z,41.70
2023-03-15T13:25:28.699Z,41.36
2023-03-15T13:27:43.973Z,41.04
2023-03-15T13:29:45.556Z,40.17
2023-03-15T13:32:00.749Z,40.93
2023-03-15T13:34:12.170Z,40.19
2023-03-15T13:36:16.098Z,39.57
2023-03-15T13:38:26.190Z,41.09
2023-03-15T13:40:28.489Z,40.36
2023-03-15T13:42:30.067Z,41.01
2023-03-15T13:44:32.924Z,41.82
2023-03-15T13:46:34.629Z,40.05
2023-03-15T13:48:42.853Z,39.51
2023-03-15T13:50:48.845Z,39.92
2023-03-15T13:52:50.480Z,40.35
2023-03-15T13:54:54.108Z,40.10
2023-03-15T13:56:59.941Z,41.06
2023-03-15T13:59:03.032Z,40.78
2023-03-15T14:01:09.611Z,41.24
2023-03-15T14:03:16.754Z,41.48
2023-03-15T14:05:24.062Z,41.43
2023-03-15T14:07:29.503Z,42.13
2023-03-15T14:09:31.620Z,41.28
2023-03-15T14:11:37.648Z,40.55
2023-03-15T14:13:49.489Z,41.33
2023-03-15T14:15:56.883Z,39.99
2023-03-15T14:18:01.908Z,40.98
2023-03-15T14:20:07.159Z,41.03
2023-03-15T14:22:14.939Z,41.75
2023-03-15T14:24:22.816Z,41.98
2023-03-15T14:26:28.077Z,42.01
2023-03-15T14:28:33.157Z,41.57
2023-03-15T14:30:37.019Z,41.34
2023-03-15T14:32:52.059Z,42.74
2023-03-15T14:35:00.481Z,42.33
2023-03-15T14:37:04.142Z,40.89
2023-03-15T14:39:17.522Z,43.16
2023-03-15T14:41:34.115Z,43.48
2023-03-15T14:43:38.368Z,42.17
2023-03-15T14:45:42.520Z,42.75
2023-03-15T14:47:55.991Z,42.85
2023-03-15T14:49:58.222Z,41.78
2023-03-15T14:52:02.710Z,42.30
2023-03-15T14:54:04.726Z,42.57
2023-03-15T14:56:06.988Z,42.10
2023-03-15T14:58:12.932Z,43.45
2023-03-15T15:00:17.968Z,43.26
2023-03-15T15:02:20.029Z,42.99
2023-03-15T15:04:22.502Z,42.77
2023-03-15T15:06:26.585Z,43.34
2023-03-15T15:08:31.031Z,42.72
2023-03-15T15:10:33.954Z,43.35
2023-03-15T15:12:35.565Z,43.93
2023-03-15T15:14:37.456Z,43.93
2023-03-15T15:16:40.702Z,43.85
2023-03-15T15:18:42.782Z,43.64
2023-03-15T15:20:46.415Z,44.19
2023-03-15T15:22:48.636Z,44.83
2023-03-15T15:24:51.425Z,44.13
2023-03-15T15:26:53.446Z,44.23
2023-03-15T15:28:55.005Z,45.00
2023-03-15T15:30:57.263Z,44.73
2023-03-15T15:33:00.611Z,45.27
2023-03-15T15:35:02.557Z,45.31
2023-03-15T15:37:04.307Z,45.15
2023-03-15T15:39:18.094Z,43.95
2023-03-15T15:41:23.509Z,44.63
2023-03-15T15:43:25.125Z,44.68
2023-03-15T15:45:26.777Z,44.70
2023-03-15T15:47:28.765Z,44.93
2023-03-15T15:49:31.852Z,44.48
2023-03-15T15:51:36.821Z,45.12
2023-03-15T15:53:38.393Z,44.34
2023-03-15T15:55:39.942Z,45.22
2023-03-15T15:57:42.806Z,44.95
2023-03-15T15:59:44.334Z,43.81
2023-03-15T16:01:59.390Z,43.59
2023-03-15T16:04:03.051Z,43.97
2023-03-15T16:06:06.869Z,43.67
2023-03-15T16:08:18.521Z,44.06
2023-03-15T16:10:22.312Z,43.39
2023-03-15T16:12:25.365Z,44.44
2023-03-15T16:14:26.922Z,44.17
2023-03-15T16:16:28.634Z,44.46
2023-03-15T16:18:30.528Z,44.33
2023-03-15T16:20:32.177Z,44.60
2023-03-15T16:22:37.720Z,45.82
2023-03-15T16:24:41.539Z,45.32
2023-03-15T16:26:45.217Z,45.93
2023-03-15T16:28:46.861Z,46.07
2023-03-15T16:30:48.659Z,46.10
2023-03-15T16:32:50.907Z,46.27
2023-03-15T16:34:53.603Z,46.56
2023-03-15T16:36:55.350Z,45.96
2023-03-15T16:39:00.860Z,46.88
2023-03-15T16:41:02.465Z,46.83
2023-03-15T16:43:04.281Z,46.99
2023-03-15T16:45:12.342Z,47.49
2023-03-15T16:47:13.921Z,47.34
2023-03-15T16:49:15.756Z,47.09
2023-03-15T16:51:17.868Z,47.10
2023-03-15T16:53:19.412Z,47.67
2023-03-15T16:55:26.074Z,47.93
2023-03-15T16:57:27.764Z,48.05
2023-03-15T16:59:29.506Z,49.22
2023-03-15T17:01:32.360Z,50.23
2023-03-15T17:03:34.169Z,50.97
2023-03-15T17:05:38.706Z,50.94
2023-03-15T17:07:40.500Z,52.62
2023-03-15T17:09:44.373Z,52.40
2023-03-15T17:11:49.875Z,53.14
2023-03-15T17:13:51.929Z,53.59
2023-03-15T17:15:53.602Z,53.87
2023-03-15T17:17:57.013Z,53.64
2023-03-15T17:19:58.806Z,53.99
2023-03-15T17:22:00.750Z,53.76
2023-03-15T17:24:03.746Z,54.64
2023-03-15T17:26:10.092Z,54.60
2023-03-15T17:28:13.090Z,54.76
2023-03-15T17:30:17.714Z,54.89
2023-03-15T17:32:20.079Z,55.25
2023-03-15T17:34:22.139Z,54.97
2023-03-15T17:36:26.438Z,55.23
2023-03-15T17:38:30.425Z,55.26
2023-03-15T17:40:34.922Z,55.93
2023-03-15T17:42:36.722Z,55.28
2023-03-15T17:44:41.145Z,55.56
2023-03-15T17:46:42.798Z,55.93
2023-03-15T17:48:44.550Z,55.63
2023-03-15T17:50:46.195Z,55.96
2023-03-15T17:52:52.953Z,55.60
2023-03-15T17:54:54.485Z,56.34
2023-03-15T17:56:57.172Z,57.19
2023-03-15T17:58:58.822Z,57.31
2023-03-15T18:01:01.934Z,57.31
2023-03-15T18:03:03.871Z,56.99
2023-03-15T18:05:13.311Z,57.35
2023-03-15T18:07:14.911Z,58.01
2023-03-15T18:09:16.520Z,58.12
2023-03-15T18:11:23.787Z,57.88
2023-03-15T18:13:27.162Z,58.72
2023-03-15T18:15:28.836Z,58.61
2023-03-15T18:17:31.980Z,58.36
2023-03-15T18:19:33.575Z,58.54
2023-03-15T18:21:35.432Z,58.88
2023-03-15T18:23:37.011Z,58.74
2023-03-15T18:25:39.099Z,58.50
2023-03-15T18:27:40.956Z,58.69
2023-03-15T18:29:43.960Z,58.74
2023-03-15T18:31:45.613Z,58.63
2023-03-15T18:33:50.192Z,58.70
2023-03-15T18:35:52.176Z,59.00
2023-03-15T18:37:54.464Z,58.89
2023-03-15T18:39:56.195Z,58.66
2023-03-15T18:41:58.595Z,59.39
2023-03-15T18:44:00.328Z,59.59
2023-03-15T18:46:02.224Z,59.54
2023-03-15T18:48:04.633Z,58.87
2023-03-15T18:50:10.912Z,58.97
2023-03-15T18:52:14.707Z,59.05
2023-03-15T18:54:16.284Z,59.48
2023-03-15T18:56:20.426Z,59.61
2023-03-15T18:58:22.349Z,59.76
2023-03-15T19:00:26.539Z,59.64
2023-03-15T19:02:28.665Z,60.34
2023-03-15T19:04:30.386Z,60.32
2023-03-15T19:06:33.479Z,60.34
2023-03-15T19:08:35.815Z,59.87
2023-03-15T19:10:37.423Z,60.07
2023-03-15T19:12:39.023Z,59.75
2023-03-15T19:14:40.867Z,60.03
2023-03-15T19:16:43.284Z,60.27
2023-03-15T19:18:44.940Z,60.11
2023-03-15T19:20:46.718Z,60.06
2023-03-15T19:22:51.189Z,60.24
2023-03-15T19:24:52.795Z,60.69
2023-03-15T19:26:54.355Z,60.70
2023-03-15T19:28:56.213Z,61.24
2023-03-15T19:30:58.398Z,60.96
2023-03-15T19:33:00.224Z,61.19
2023-03-15T19:35:02.088Z,60.95
2023-03-15T19:37:03.652Z,61.19
2023-03-15T19:39:06.773Z,61.54
2023-03-15T19:41:11.378Z,61.92
2023-03-15T19:43:14.746Z,61.38
2023-03-15T19:45:21.254Z,61.51
2023-03-15T19:47:23.869Z,61.91
2023-03-15T19:49:25.870Z,61.70
2023-03-15T19:51:27.687Z,62.51
2023-03-15T19:53:31.315Z,61.71
2023-03-15T19:55:35.179Z,62.26
2023-03-15T19:57:37.252Z,62.34
2023-03-15T19:59:40.365Z,62.84
2023-03-15T20:01:42.021Z,61.98
2023-03-15T20:03:43.852Z,63.00
2023-03-15T20:05:45.449Z,62.91
2023-03-15T20:07:48.434Z,62.81
2023-03-15T20:09:50.061Z,63.23
2023-03-15T20:11:52.925Z,62.97
2023-03-15T20:13:54.925Z,63.09
2023-03-15T20:15:56.971Z,63.37
2023-03-15T20:17:58.827Z,62.78
2023-03-15T20:20:00.436Z,63.12
2023-03-15T20:22:01.998Z,63.25
2023-03-15T20:24:04.128Z,63.34
2023-03-15T20:26:08.912Z,62.98
2023-03-15T20:28:12.178Z,63.36
2023-03-15T20:30:16.448Z,62.87
2023-03-15T20:32:18.057Z,63.53
2023-03-15T20:34:19.679Z,63.57
2023-03-15T20:36:21.694Z,63.24
2023-03-15T20:38:23.530Z,62.93
2023-03-15T20:40:25.654Z,63.03
2023-03-15T20:42:28.717Z,63.48
2023-03-15T20:44:33.470Z,63.11
2023-03-15T20:46:36.242Z,63.73
2023-03-15T20:48:37.905Z,64.16
2023-03-15T20:50:39.792Z,63.90
2023-03-15T20:52:41.857Z,63.49
2023-03-15T20:54:43.479Z,64.09
2023-03-15T20:56:45.621Z,63.99
2023-03-15T20:58:47.630Z,64.21
2023-03-15T21:00:50.980Z,64.00
2023-03-15T21:02:53.028Z,64.19
2023-03-15T21:04:54.755Z,64.19
2023-03-15T21:06:56.588Z,63.82
2023-03-15T21:08:58.412Z,63.68
2023-03-15T21:11:00.943Z,64.49
2023-03-15T21:13:02.940Z,64.34
2023-03-15T21:15:06.073Z,64.73
2023-03-15T21:17:09.294Z,64.32
2023-03-15T21:19:10.944Z,64.44
2023-03-15T21:21:12.697Z,64.49
2023-03-15T21:23:14.752Z,64.49
2023-03-15T21:25:16.521Z,65.29
2023-03-15T21:27:18.364Z,64.97
2023-03-15T21:29:20.165Z,64.83
2023-03-15T21:31:22.022Z,65.05
2023-03-15T21:33:27.423Z,64.95
2023-03-15T21:35:29.073Z,65.16
2023-03-15T21:37:30.718Z,64.99
2023-03-15T21:39:32.362Z,64.92
2023-03-15T21:41:34.528Z,64.98
2023-03-15T21:43:37.707Z,65.38
2023-03-15T21:45:40.096Z,65.35
2023-03-15T21:47:42.280Z,65.02
2023-03-15T21:49:45.532Z,65.07
2023-03-15T21:51:47.384Z,65.04
2023-03-15T21:53:48.989Z,65.51
2023-03-15T21:55:50.794Z,65.35
2023-03-15T21:57:52.755Z,65.52
2023-03-15T21:59:54.509Z,65.43
2023-03-15T22:01:56.905Z,65.51
2023-03-15T22:04:00.617Z,65.71
2023-03-15T22:06:03.757Z,65.45
2023-03-15T22:08:06.016Z,65.29
2023-03-15T22:10:09.009Z,65.23
2023-03-15T22:12:10.921Z,65.66
2023-03-15T22:14:13.033Z,64.99
2023-03-15T22:16:14.912Z,65.22
2023-03-15T22:18:16.554Z,66.17
2023-03-15T22:20:20.201Z,65.32
2023-03-15T22:22:25.198Z,65.01
2023-03-15T22:24:26.756Z,65.14
2023-03-15T22:26:32.124Z,65.12
2023-03-15T22:28:33.699Z,65.49
2023-03-15T22:30:35.486Z,65.75
2023-03-15T22:32:37.198Z,65.03
2023-03-15T22:34:39.226Z,64.92
2023-03-15T22:36:41.345Z,65.70
2023-03-15T22:38:44.464Z,65.43
2023-03-15T22:40:46.940Z,65.44
2023-03-15T22:42:48.965Z,65.67
2023-03-15T22:44:52.248Z,64.91
2023-03-15T22:46:54.468Z,65.47
2023-03-15T22:48:55.996Z,65.35
2023-03-15T22:50:59.424Z,65.61
2023-03-15T22:53:01.524Z,65.53
2023-03-15T22:55:05.924Z,65.15
2023-03-15T22:57:08.133Z,65.22
2023-03-15T22:59:10.157Z,64.64
2023-03-15T23:01:11.779Z,65.24
2023-03-15T23:03:13.440Z,65.73
2023-03-15T23:05:15.234Z,65.36
2023-03-15T23:07:16.907Z,65.92
2023-03-15T23:09:19.177Z,65.36
2023-03-15T23:11:23.759Z,65.54
2023-03-15T23:13:25.804Z,65.32
2023-03-15T23:15:27.499Z,65.42
2023-03-15T23:17:30.972Z,65.31
2023-03-15T23:19:33.186Z,65.13
2023-03-15T23:21:34.926Z,65.32
2023-03-15T23:23:36.838Z,65.94
2023-03-15T23:25:40.058Z,65.97
2023-03-15T23:27:43.307Z,65.75
2023-03-15T23:29:54.168Z,65.82
2023-03-15T23:31:56.866Z,65.36
2023-03-15T23:33:58.514Z,65.05
2023-03-15T23:36:00.452Z,65.25
2023-03-15T23:38:02.435Z,65.25
2023-03-15T23:40:05.596Z,65.69
2023-03-15T23:42:07.460Z,65.97
2023-03-15T23:44:11.273Z,65.79
2023-03-15T23:46:12.966Z,66.00
2023-03-15T23:48:14.775Z,65.94
2023-03-15T23:50:17.609Z,65.58
2023-03-15T23:52:19.102Z,65.73
2023-03-15T23:54:20.873Z,65.62
2023-03-15T23:56:22.706Z,65.29
2023-03-15T23:58:24.588Z,66.25
